Allouez, MI

6:40 AM EDT on April 01, 2015 (GMT -0400)
MesoWest | | Change Station
CLOSE
Current Station
Personal Weather Station
Location: Laurium, MI
Elevation: 1170 ft
Nearby Weather Stations

Elev 1170 ft 47.22 °N, 88.46 °W | Updated 35 minutes ago

Overcast
Overcast
27 °F
Feels Like 22 °F
N
4
Wind Variable Wind from ESE
Gusts 15.0 mph

Today
High -- | Low -- °F
--% Chance of Precip.
Yesterday
High -- | Low -- °F
Precip. -- in
7:32 AM 8:22 PM
Waxing Gibbous, 92% visible
Pressure 29.97 in
Visibility 0.2 miles
Clouds
Windchill 22 °F
Dew Point 27 °F
Humidity 99%
Rainfall in
Snow Depth Not available.
UV Not available.
Pollen 2.50 out of 12
Air Quality Not available.
Flu Activity Not available.
SPECI KCMX 011028Z AUTO 13008KT 1/4SM FZFG VV002 M02/M03 A2997 RMK AO2 I1000 T10221028

More Conditions Fewer Conditions

Pressure 29.97 in
Visibility 0.2 miles
Clouds
Windchill 22 °F
Dew Point 27 °F
Humidity 99%
Rainfall in
Snow Depth Not available.
UV Not available.
Pollen 2.50 out of 12
Air Quality Not available.
Flu Activity Not available.
SPECI KCMX 011028Z AUTO 13008KT 1/4SM FZFG VV002 M02/M03 A2997 RMK AO2 I1000 T10221028

More Conditions Fewer Conditions

10-Day Weather Forecast

Almanac

Astronomy

Apr. 01, 2015 Rise Set
Actual Time
Civil Twilight
Nautical Twilight
Astronomical Twilight
Moon
Length of Visible Light
Length of Day
Tomorrow will be .
, % of the Moon is Illuminated

Today's Extremes

State Highs State Lows

Community

WunderPhotos

Upload Photos

1,809,934 photos uploaded!

WunderBlogs® & News

Nearby

Air Quality

  Air Quality AQ Index Pollutant
Not available.

Snow Depth

Station Depth Elevation

Earthquake Activity

City Distance Mag. Time & Date
Minimum magnitude displayed is 2.5.

Coastal Water Temperatures

Place Temperature

Stations

Nearby Weather Stations

Station Location Temp. Windchill Dew Point Humidity Wind Precip. Elev Updated Type